Latest Weather Observations for Urandangi

IDQ60801

Issued at 7:02 pm EST Tuesday 25 July 2017 (issued every 30 minutes, with the page automatically refreshed every 10 minutes)

About weather observations | Map of weather stations | Latest weather observations for QLD | Other Formats
Station Details ID: 037058 Name: URANDANGI AERODROME Lat: -21.60 Lon: 138.37 Height: 178.6 m
Data from the previous 72 hours. | See also: Recent months at Urandangi
Date/Time
EST
Temp
°C
App
Temp
°C
Dew
Point
°C
Rel
Hum
%
Delta-T
°C
Wind Press
QNH
hPa
Press
MSL
hPa
Rain since
9am
mm
Dir  Spd
km/h
Gust
km/h
Spd
kts
Gust
kts
25/07:00pm 21.4 18.1 2.6 29 8.9 SSE 9 9 5 5 1018.3 1018.1 0.0
25/06:30pm 23.5 20.2 2.4 25 10.1 SSE 9 11 5 6 1017.9 1017.7 0.0
25/06:00pm 26.8 22.8 2.7 21 11.9 SE 13 19 7 10 1017.5 1017.4 0.0
25/05:30pm 28.1 24.1 3.0 20 12.6 SSE 13 20 7 11 1017.3 1017.2 0.0
25/05:00pm 28.9 25.3 3.0 19 13.0 SE 11 19 6 10 1017.2 1017.1 0.0
25/04:30pm 29.1 25.4 2.4 18 13.3 SSE 11 24 6 13 1016.9 1016.7 0.0
25/04:00pm 29.1 25.8 2.4 18 13.3 SE 9 17 5 9 1017.0 1016.8 0.0
25/03:30pm 29.5 24.7 2.7 18 13.5 S 17 24 9 13 1016.9 1016.7 0.0
25/03:00pm 29.4 24.6 2.6 18 13.4 SSE 17 30 9 16 1017.2 1017.1 0.0
25/02:30pm 29.5 25.6 3.5 19 13.3 SSE 13 20 7 11 1017.4 1017.3 0.0
25/02:00pm 29.2 24.5 3.2 19 13.1 SSE 17 30 9 16 1017.7 1017.6 0.0
25/01:30pm 29.5 25.8 4.2 20 13.0 SE 13 24 7 13 1018.2 1018.0 0.0
25/01:00pm 28.7 23.8 4.2 21 12.5 E 19 32 10 17 1018.8 1018.6 0.0
25/12:30pm 28.6 23.7 4.2 21 12.5 E 19 28 10 15 1019.2 1019.0 0.0
25/12:00pm 27.8 23.0 4.8 23 11.8 E 19 28 10 15 1019.8 1019.6 0.0
25/11:30am 27.6 23.0 5.8 25 11.4 E 19 28 10 15 1020.3 1020.1 0.0
25/11:00am 25.7 21.3 4.8 26 10.6 ESE 17 22 9 12 1020.8 1020.6 0.0
25/10:30am 22.7 18.7 2.8 27 9.6 ESE 13 20 7 11 1021.1 1020.9 0.0
25/10:00am 20.5 15.8 0.9 27 8.9 ESE 15 19 8 10 1021.2 1021.0 0.0
25/09:30am 18.2 13.7 -0.6 28 8.2 SE 13 19 7 10 1021.3 1021.1 0.0
25/09:00am 15.9 11.5 -2.1 29 7.4 SSE 11 15 6 8 1021.2 1021.0 0.0
25/08:30am 12.7 9.0 -2.7 34 6.0 SSE 7 11 4 6 1021.0 1020.8 0.0
25/08:00am 8.2 4.5 -2.7 46 4.1 S 7 9 4 5 1020.9 1020.7 0.0
25/07:30am 7.1 3.6 -3.1 48 3.7 S 6 7 3 4 1020.5 1020.3 0.0
25/07:00am 6.3 2.8 -2.8 52 3.3 S 6 6 3 3 1020.3 1020.1 0.0
25/06:30am 6.6 3.1 -2.5 52 3.3 SSE 6 6 3 3 1020.0 1019.8 0.0
25/06:00am 7.7 4.7 -2.0 50 3.6 SSE 4 4 2 2 1019.9 1019.7 0.0
25/05:30am 7.7 4.2 -2.6 48 3.8 SSE 6 6 3 3 1019.7 1019.5 0.0
25/05:00am 7.9 4.5 -1.9 50 3.7 SSE 6 6 3 3 1019.5 1019.3 0.0
25/04:30am 7.6 4.2 -2.4 49 3.7 SSE 6 6 3 3 1019.3 1019.1 0.0
25/04:00am 7.7 4.3 -2.0 50 3.6 SSE 6 6 3 3 1019.3 1019.1 0.0
25/03:30am 8.3 4.9 -2.0 48 3.9 SSE 6 6 3 3 1019.3 1019.1 0.0
25/03:00am 8.3 4.7 -1.8 49 3.8 SSE 7 7 4 4 1019.4 1019.2 0.0
25/02:30am 8.4 5.0 -1.7 49 3.9 SSE 6 6 3 3 1019.3 1019.1 0.0
25/02:00am 8.6 5.0 -2.1 47 4.1 SE 7 9 4 5 1019.3 1019.1 0.0
25/01:30am 9.2 5.9 -1.5 47 4.2 SE 6 6 3 3 1019.4 1019.2 0.0
25/01:00am 9.0 5.4 -2.0 46 4.2 SE 7 9 4 5 1019.6 1019.4 0.0
25/12:30am 9.5 5.9 -1.8 45 4.4 SE 7 9 4 5 1019.5 1019.3 0.0
25/12:00am 9.6 6.1 -1.7 45 4.4 SE 7 9 4 5 1019.6 1019.4 0.0
 
Date/Time
EST
Temp
°C
App
Temp
°C
Dew
Point
°C
Rel
Hum
%
Delta-T
°C
Wind Press
QNH
hPa
Press
MSL
hPa
Rain since
9am
mm
Dir  Spd
km/h
Gust
km/h
Spd
kts
Gust
kts
24/11:30pm 10.3 6.8 -1.7 43 4.7 SE 7 9 4 5 1019.7 1019.5 0.0
24/11:00pm 11.3 7.9 -1.8 40 5.2 SE 6 6 3 3 1019.8 1019.6 0.0
24/10:30pm 12.9 9.4 -1.4 37 5.8 SSE 7 7 4 4 1019.8 1019.6 0.0
24/10:00pm 13.9 10.5 -0.9 36 6.1 SSE 7 7 4 4 1019.6 1019.4 0.0
24/09:30pm 13.9 10.6 -0.9 36 6.1 SSE 6 7 3 4 1019.5 1019.3 0.0
24/09:00pm 14.3 11.0 -0.9 35 6.3 SSE 6 6 3 3 1019.3 1019.1 0.0
24/08:30pm 15.3 12.0 -0.9 33 6.8 SSE 6 7 3 4 1019.0 1018.8 0.0
24/08:00pm 16.9 13.5 -0.8 30 7.5 SSE 7 7 4 4 1018.7 1018.5 0.0
24/07:30pm 18.6 14.8 -0.7 27 8.4 SSE 9 11 5 6 1018.4 1018.2 0.0
24/07:00pm 19.7 15.5 -0.9 25 9.0 SSE 11 11 6 6 1018.0 1017.8 0.0
24/06:30pm 22.1 17.9 -1.2 21 10.3 SSE 11 15 6 8 1017.5 1017.4 0.0
24/06:00pm 25.2 20.5 -1.6 17 12.1 SE 13 19 7 10 1017.3 1017.2 0.0
24/05:30pm 26.6 21.6 -1.3 16 12.8 ESE 15 22 8 12 1017.0 1016.8 0.0
24/05:00pm 26.8 21.3 -2.0 15 13.0 SE 17 24 9 13 1016.8 1016.6 0.0
24/04:30pm 26.7 20.9 -1.2 16 12.8 SSE 19 24 10 13 1016.8 1016.6 0.0
24/04:00pm 28.3 22.6 -0.8 15 13.6 SSE 19 28 10 15 1017.0 1016.8 0.0
24/03:30pm 28.4 22.6 -1.6 14 13.9 SE 19 28 10 15 1017.1 1016.9 0.0
24/03:00pm 27.1 21.8 -0.9 16 13.0 SE 17 28 9 15 1017.3 1017.2 0.0
24/02:30pm 27.2 21.5 -0.8 16 13.0 SE 19 28 10 15 1017.6 1017.5 0.0
24/02:00pm 28.6 23.7 -0.5 15 13.7 ESE 15 22 8 12 1018.0 1017.8 0.0
24/01:30pm 27.1 21.2 -0.9 16 13.0 SE 20 30 11 16 1018.5 1018.3 0.0
24/01:00pm 27.8 21.9 -2.1 14 13.6 SE 19 30 10 16 1019.2 1019.0 0.0
24/12:30pm 25.7 19.4 -3.8 14 12.8 SE 20 33 11 18 1019.9 1019.7 0.0
24/12:00pm 26.1 19.0 -4.4 13 13.1 ESE 24 33 13 18 1020.4 1020.2 0.0
24/11:30am 25.3 18.9 -5.1 13 12.9 SE 20 28 11 15 1021.2 1021.0 0.0
24/11:00am 23.9 16.6 -6.2 13 12.3 SE 24 33 13 18 1021.5 1021.3 0.0
24/10:30am 22.6 16.2 -5.3 15 11.5 SE 20 26 11 14 1021.7 1021.5 0.0
24/10:00am 20.2 14.7 -5.6 17 10.3 SE 15 20 8 11 1021.9 1021.7 0.0
24/09:30am 17.6 12.1 -5.6 20 9.0 SE 15 22 8 12 1021.8 1021.6 0.0
24/09:00am 14.2 9.1 -5.0 26 7.2 SE 13 17 7 9 1021.6 1021.4 0.0
24/08:30am 11.3 7.4 -4.8 32 5.9 SE 7 11 4 6 1021.4 1021.2 0.0
24/08:28am 11.0 7.1 -4.2 34 5.7 SE 7 11 4 6 1021.4 1021.2 0.0
24/08:00am 5.9 2.0 -4.8 46 3.7 SE 7 7 4 4 1021.1 1020.9 0.0
24/07:30am 5.0 0.6 -5.6 46 3.5 SE 9 9 5 5 1020.8 1020.6 0.0
24/07:00am 5.6 1.2 -5.7 44 3.8 SSE 9 11 5 6 1020.4 1020.2 0.0
24/06:30am 5.1 1.1 -6.1 44 3.7 SSE 7 9 4 5 1020.1 1019.9 0.0
24/06:00am 4.9 0.9 -6.0 45 3.6 SSE 7 7 4 4 1019.8 1019.6 0.0
24/05:30am 5.0 0.9 -6.5 43 3.7 SE 7 7 4 4 1019.6 1019.4 0.0
24/05:00am 6.0 2.2 -5.9 42 4.0 SSE 6 6 3 3 1019.5 1019.3 0.0
24/04:30am 6.1 2.2 -6.5 40 4.2 SSE 6 6 3 3 1019.2 1019.0 0.0
24/04:00am 7.0 3.1 -7.0 36 4.6 SSE 6 6 3 3 1019.0 1018.8 0.0
24/03:30am 6.8 2.6 -7.2 36 4.6 SSE 7 7 4 4 1019.1 1018.9 0.0
24/03:00am 6.9 2.8 -6.8 37 4.5 SSE 7 7 4 4 1019.3 1019.1 0.0
24/02:30am 6.7 2.6 -6.6 38 4.4 SSE 7 7 4 4 1019.2 1019.0 0.0
24/02:00am 7.1 3.3 -5.9 39 4.4 SSE 6 6 3 3 1019.4 1019.2 0.0
24/01:30am 6.5 2.6 -6.8 38 4.4 S 6 9 3 5 1019.5 1019.3 0.0
24/01:00am 8.7 4.8 -6.6 33 5.2 SE 6 6 3 3 1019.1 1018.9 0.0
24/12:30am 9.4 5.5 -6.8 31 5.6 ESE 6 6 3 3 1019.3 1019.1 0.0
24/12:00am 9.7 5.7 -7.4 29 5.8 ESE 6 6 3 3 1019.7 1019.5 0.0
 
Date/Time
EST
Temp
°C
App
Temp
°C
Dew
Point
°C
Rel
Hum
%
Delta-T
°C
Wind Press
QNH
hPa
Press
MSL
hPa
Rain since
9am
mm
Dir  Spd
km/h
Gust
km/h
Spd
kts
Gust
kts
23/11:30pm 10.5 6.3 -7.2 28 6.1 ESE 7 7 4 4 1019.8 1019.6 0.0
23/11:00pm 10.7 6.8 -7.0 28 6.1 ESE 6 7 3 4 1019.8 1019.6 0.0
23/10:30pm 11.1 7.5 -7.2 27 6.4 ESE 4 6 2 3 1019.8 1019.6 0.0
23/10:00pm 10.9 7.0 -6.9 28 6.2 SE 6 7 3 4 1019.7 1019.5 0.0
23/09:30pm 11.8 7.8 -8.1 24 6.8 SSE 6 7 3 4 1019.5 1019.3 0.0
23/09:00pm 12.9 7.9 -8.3 22 7.3 SSE 11 13 6 7 1019.2 1019.0 0.0
23/08:30pm 13.5 8.1 -8.4 21 7.6 SSE 13 15 7 8 1018.8 1018.6 0.0
23/08:00pm 14.5 9.1 -8.8 19 8.1 SSE 13 13 7 7 1018.6 1018.4 0.0
23/07:30pm 15.8 10.7 -9.2 17 8.8 SSE 11 13 6 7 1018.2 1018.0 0.0
23/07:00pm 17.0 11.9 -9.0 16 9.3 SSE 11 13 6 7 1018.0 1017.8 0.0
23/06:30pm 20.0 14.8 -10.2 12 11.0 SSE 11 13 6 7 1017.6 1017.5 0.0
23/06:00pm 23.4 17.8 -11.2 9 12.8 SSE 13 17 7 9 1017.3 1017.2 0.0
23/05:30pm 24.7 18.7 -11.7 8 13.5 SSE 15 22 8 12 1017.0 1016.8 0.0
23/05:00pm 25.4 18.9 -12.9 7 14.0 SSE 17 24 9 13 1016.8 1016.6 0.0
23/04:30pm 25.8 19.7 -12.6 7 14.2 SE 15 28 8 15 1016.9 1016.7 0.0
23/04:00pm 26.0 19.2 -12.4 7 14.3 SSE 19 28 10 15 1016.9 1016.7 0.0
23/03:30pm 25.6 19.2 -11.1 8 13.9 SSE 17 26 9 14 1017.1 1016.9 0.0
23/03:00pm 25.4 18.5 -12.9 7 14.0 SSE 19 28 10 15 1017.4 1017.3 0.0
23/02:30pm 25.8 19.6 -9.4 9 13.8 SE 17 22 9 12 1017.9 1017.7 0.0
23/02:00pm 25.1 18.9 -8.6 10 13.3 SE 17 26 9 14 1018.4 1018.2 0.0
23/01:30pm 24.2 18.4 -8.1 11 12.8 SSE 15 26 8 14 1018.9 1018.7 0.0
23/01:00pm 23.7 18.1 -6.3 13 12.2 SE 15 24 8 13 1019.5 1019.3 0.0
23/12:30pm 23.2 17.7 -5.7 14 11.9 SE 15 28 8 15 1020.1 1019.9 0.0
23/12:00pm 22.7 16.8 -5.2 15 11.5 SE 17 24 9 13 1020.7 1020.5 0.0
23/11:30am 21.9 16.4 -5.0 16 11.0 SE 15 19 8 10 1021.0 1020.8 0.0
23/11:00am 20.9 15.1 -4.3 18 10.4 SE 17 24 9 13 1021.3 1021.1 0.0
23/10:30am 19.5 14.6 -3.4 21 9.5 SE 13 20 7 11 1021.4 1021.2 0.0
23/10:00am 17.3 12.4 -3.4 24 8.4 SE 13 17 7 9 1021.7 1021.5 0.0
23/09:30am 15.4 10.9 -3.5 27 7.5 ESE 11 19 6 10 1021.5 1021.3 0.0
23/09:00am 12.2 8.0 -3.6 33 6.0 SE 9 11 5 6 1021.2 1021.0 0.0
23/08:30am 8.8 5.3 -2.8 44 4.3 SE 6 9 3 5 1020.8 1020.6 0.0
23/08:00am 4.4 1.2 -3.1 58 2.6 SE 4 6 2 3 1020.6 1020.4 0.0
23/07:30am 1.7 -1.9 -4.0 66 2.0 SE 6 6 3 3 1020.5 1020.3 0.0
23/07:00am 2.5 -0.7 -3.8 63 2.1 SE 4 6 2 3 1020.4 1020.2 0.0
23/06:30am 2.7 -0.5 -3.8 62 2.2 SSE 4 6 2 3 1020.2 1020.0 0.0
23/06:00am 2.3 -1.3 -4.0 63 2.1 S 6 6 3 3 1020.1 1019.9 0.0
23/05:30am 3.3 0.0 -4.2 58 2.5 SE 4 6 2 3 1019.8 1019.6 0.0
23/05:00am 4.0 1.2 -3.5 58 2.6 ESE 2 4 1 2 1019.7 1019.5 0.0
23/04:30am 4.6 1.4 -3.4 56 2.8 ESE 4 4 2 2 1019.6 1019.4 0.0
23/04:00am 5.9 2.8 -2.9 53 3.2 E 4 6 2 3 1019.6 1019.4 0.0
23/03:30am 4.7 1.1 -4.0 53 3.0 ESE 6 6 3 3 1019.6 1019.4 0.0
23/03:00am 6.2 2.6 -3.4 50 3.4 ESE 6 6 3 3 1019.6 1019.4 0.0
23/02:30am 7.2 4.1 -2.5 50 3.6 ESE 4 6 2 3 1019.7 1019.5 0.0
23/02:00am 5.9 2.4 -3.2 52 3.3 SE 6 6 3 3 1019.7 1019.5 0.0
23/01:30am 6.3 2.8 -2.6 53 3.3 SSE 6 6 3 3 1019.8 1019.6 0.0
23/01:00am 6.7 3.6 -3.0 50 3.5 SSE 4 6 2 3 1019.9 1019.7 0.0
23/12:30am 7.3 4.2 -2.7 49 3.7 SE 4 4 2 2 1020.0 1019.8 0.0
23/12:00am 7.3 3.8 -3.0 48 3.8 SE 6 6 3 3 1019.9 1019.7 0.0
 
Date/Time
EST
Temp
°C
App
Temp
°C
Dew
Point
°C
Rel
Hum
%
Delta-T
°C
Wind Press
QNH
hPa
Press
MSL
hPa
Rain since
9am
mm
Dir  Spd
km/h
Gust
km/h
Spd
kts
Gust
kts
22/11:30pm 8.1 5.0 -2.8 46 4.1 SE 4 4 2 2 1020.0 1019.8 0.0
22/11:00pm 9.4 6.3 -2.5 43 4.5 SSE 4 4 2 2 1020.2 1020.0 0.0
22/10:30pm 9.6 6.5 -2.3 43 4.6 SSE 4 4 2 2 1020.0 1019.8 0.0
22/10:00pm 10.9 7.8 -2.5 39 5.2 S 4 4 2 2 1020.0 1019.8 0.0
22/09:30pm 11.2 8.1 -2.9 37 5.4 S 4 6 2 3 1019.8 1019.6 0.0
22/09:00pm 11.9 8.7 -3.1 35 5.8 S 4 4 2 2 1019.8 1019.6 0.0
22/08:30pm 12.9 9.1 -3.8 31 6.4 S 7 7 4 4 1019.6 1019.4 0.0
22/08:00pm 14.3 10.1 -3.9 28 7.1 SSE 9 9 5 5 1019.2 1019.0 0.0
22/07:30pm 15.9 11.7 -3.6 26 7.8 S 9 11 5 6 1018.8 1018.6 0.0

Other Formats:

Comma delimited format used in spreadsheet applications
http://www.bom.gov.au/fwo/IDQ60801/IDQ60801.94344.axf

JavaScript Object Notation format (JSON) in row-major order
http://www.bom.gov.au/fwo/IDQ60801/IDQ60801.94344.json